sensor_id;sensor_type;location;lat;lon;timestamp;pressure;altitude;pressure_sealevel;temperature;humidity
22964;BME280;11648;49.306;6.934;2023-03-03T00:00:06;98701.94;;;6.57;56.86
22964;BME280;11648;49.306;6.934;2023-03-03T00:02:42;98705.41;;;6.56;57.42
22964;BME280;11648;49.306;6.934;2023-03-03T00:05:09;98699.31;;;6.56;56.88
22964;BME280;11648;49.306;6.934;2023-03-03T00:07:36;98699.25;;;6.51;56.91
22964;BME280;11648;49.306;6.934;2023-03-03T00:10:02;98707.94;;;6.47;57.52
22964;BME280;11648;49.306;6.934;2023-03-03T00:12:29;98704.34;;;6.36;56.84
22964;BME280;11648;49.306;6.934;2023-03-03T00:14:56;98706.00;;;6.25;58.24
22964;BME280;11648;49.306;6.934;2023-03-03T00:17:26;98703.31;;;6.22;58.13
22964;BME280;11648;49.306;6.934;2023-03-03T00:19:53;98702.41;;;6.14;59.15
22964;BME280;11648;49.306;6.934;2023-03-03T00:22:34;98707.69;;;6.20;59.55
22964;BME280;11648;49.306;6.934;2023-03-03T00:27:55;98702.63;;;6.35;58.94
22964;BME280;11648;49.306;6.934;2023-03-03T00:30:27;98708.81;;;6.46;59.78
22964;BME280;11648;49.306;6.934;2023-03-03T00:32:54;98704.50;;;6.51;58.72
22964;BME280;11648;49.306;6.934;2023-03-03T00:35:29;98705.38;;;6.52;58.04
22964;BME280;11648;49.306;6.934;2023-03-03T00:37:59;98711.44;;;6.46;58.74
22964;BME280;11648;49.306;6.934;2023-03-03T00:40:36;98708.81;;;6.46;58.29
22964;BME280;11648;49.306;6.934;2023-03-03T00:43:22;98707.97;;;6.49;58.48
22964;BME280;11648;49.306;6.934;2023-03-03T00:45:51;98701.84;;;6.48;58.99
22964;BME280;11648;49.306;6.934;2023-03-03T00:50:45;98707.84;;;6.39;57.85
22964;BME280;11648;49.306;6.934;2023-03-03T00:53:16;98716.56;;;6.37;58.29
22964;BME280;11648;49.306;6.934;2023-03-03T00:55:46;98716.41;;;6.20;57.52
22964;BME280;11648;49.306;6.934;2023-03-03T00:58:13;98712.91;;;6.20;58.30
22964;BME280;11648;49.306;6.934;2023-03-03T01:00:43;98713.72;;;6.13;58.70
22964;BME280;11648;49.306;6.934;2023-03-03T01:03:23;98717.97;;;6.03;59.08
22964;BME280;11648;49.306;6.934;2023-03-03T01:05:51;98706.59;;;6.01;59.30
22964;BME280;11648;49.306;6.934;2023-03-03T01:08:18;98709.25;;;6.04;59.43
22964;BME280;11648;49.306;6.934;2023-03-03T01:10:55;98711.06;;;6.10;60.46
22964;BME280;11648;49.306;6.934;2023-03-03T01:13:26;98707.59;;;6.12;60.60
22964;BME280;11648;49.306;6.934;2023-03-03T01:15:53;98711.16;;;6.17;60.11
22964;BME280;11648;49.306;6.934;2023-03-03T01:18:20;98703.28;;;6.16;59.84
22964;BME280;11648;49.306;6.934;2023-03-03T01:20:47;98711.88;;;6.06;59.12
22964;BME280;11648;49.306;6.934;2023-03-03T01:23:13;98710.13;;;6.03;58.80
22964;BME280;11648;49.306;6.934;2023-03-03T01:25:40;98717.09;;;6.03;59.21
22964;BME280;11648;49.306;6.934;2023-03-03T01:28:07;98718.69;;;5.93;59.64
22964;BME280;11648;49.306;6.934;2023-03-03T01:30:34;98709.94;;;5.89;59.67
22964;BME280;11648;49.306;6.934;2023-03-03T01:33:01;98714.13;;;5.77;59.67
22964;BME280;11648;49.306;6.934;2023-03-03T01:35:27;98715.91;;;5.79;59.92
22964;BME280;11648;49.306;6.934;2023-03-03T01:37:55;98704.63;;;5.82;60.43
22964;BME280;11648;49.306;6.934;2023-03-03T01:40:25;98708.91;;;5.77;60.33
22964;BME280;11648;49.306;6.934;2023-03-03T01:42:52;98707.16;;;5.74;60.13
22964;BME280;11648;49.306;6.934;2023-03-03T01:48:05;98706.28;;;5.78;60.35
22964;BME280;11648;49.306;6.934;2023-03-03T01:50:38;98704.53;;;5.76;60.13
22964;BME280;11648;49.306;6.934;2023-03-03T01:53:11;98707.72;;;5.54;59.28
22964;BME280;11648;49.306;6.934;2023-03-03T01:55:40;98704.13;;;5.44;59.06
22964;BME280;11648;49.306;6.934;2023-03-03T01:58:11;98705.88;;;5.43;59.72
22964;BME280;11648;49.306;6.934;2023-03-03T02:00:41;98704.94;;;5.40;58.95
22964;BME280;11648;49.306;6.934;2023-03-03T02:03:10;98694.53;;;5.41;59.73
22964;BME280;11648;49.306;6.934;2023-03-03T02:05:38;98703.28;;;5.45;59.82
22964;BME280;11648;49.306;6.934;2023-03-03T02:08:11;98704.06;;;5.39;60.57
22964;BME280;11648;49.306;6.934;2023-03-03T02:10:43;98697.09;;;5.37;60.17
22964;BME280;11648;49.306;6.934;2023-03-03T02:13:11;98693.41;;;5.23;60.24
22964;BME280;11648;49.306;6.934;2023-03-03T02:15:37;98685.59;;;5.23;59.90
22964;BME280;11648;49.306;6.934;2023-03-03T02:18:13;98691.56;;;4.59;62.18
22964;BME280;11648;49.306;6.934;2023-03-03T02:20:57;98689.59;;;4.45;63.95
22964;BME280;11648;49.306;6.934;2023-03-03T02:23:30;98689.31;;;4.81;63.16
22964;BME280;11648;49.306;6.934;2023-03-03T02:26:10;98683.63;;;5.08;62.43
22964;BME280;11648;49.306;6.934;2023-03-03T02:28:39;98687.28;;;5.19;61.87
22964;BME280;11648;49.306;6.934;2023-03-03T02:31:11;98688.19;;;5.23;61.93
22964;BME280;11648;49.306;6.934;2023-03-03T02:33:41;98692.47;;;5.16;62.15
22964;BME280;11648;49.306;6.934;2023-03-03T02:36:18;98693.44;;;5.26;60.75
22964;BME280;11648;49.306;6.934;2023-03-03T02:39:06;98691.66;;;5.22;60.22
22964;BME280;11648;49.306;6.934;2023-03-03T02:44:16;98708.84;;;5.08;60.34
22964;BME280;11648;49.306;6.934;2023-03-03T02:46:47;98697.53;;;5.07;60.36
22964;BME280;11648;49.306;6.934;2023-03-03T02:49:18;98694.91;;;5.06;60.85
22964;BME280;11648;49.306;6.934;2023-03-03T02:51:45;98695.81;;;5.08;60.84
22964;BME280;11648;49.306;6.934;2023-03-03T02:54:13;98694.91;;;5.07;60.98
22964;BME280;11648;49.306;6.934;2023-03-03T02:56:40;98698.44;;;5.11;60.21
22964;BME280;11648;49.306;6.934;2023-03-03T02:59:07;98698.44;;;5.11;60.07
22964;BME280;11648;49.306;6.934;2023-03-03T03:01:39;98692.25;;;5.03;61.10
22964;BME280;11648;49.306;6.934;2023-03-03T03:04:13;98698.41;;;5.08;61.12
22964;BME280;11648;49.306;6.934;2023-03-03T03:06:43;98702.91;;;5.18;60.70
22964;BME280;11648;49.306;6.934;2023-03-03T03:09:12;98698.59;;;5.21;60.43
22964;BME280;11648;49.306;6.934;2023-03-03T03:11:40;98697.75;;;5.22;60.09
22964;BME280;11648;49.306;6.934;2023-03-03T03:14:10;98695.13;;;5.21;59.69
22964;BME280;11648;49.306;6.934;2023-03-03T03:16:38;98697.72;;;5.19;58.96
22964;BME280;11648;49.306;6.934;2023-03-03T03:19:05;98696.91;;;5.23;59.27
22964;BME280;11648;49.306;6.934;2023-03-03T03:21:33;98697.75;;;5.21;57.92
22964;BME280;11648;49.306;6.934;2023-03-03T03:24:01;98692.34;;;5.10;59.59
22964;BME280;11648;49.306;6.934;2023-03-03T03:26:28;98700.91;;;4.98;60.17
22964;BME280;11648;49.306;6.934;2023-03-03T03:28:55;98689.66;;;5.03;59.82
22964;BME280;11648;49.306;6.934;2023-03-03T03:31:22;98689.69;;;5.07;59.70
22964;BME280;11648;49.306;6.934;2023-03-03T03:33:49;98689.78;;;5.12;60.09
22964;BME280;11648;49.306;6.934;2023-03-03T03:36:16;98692.41;;;5.15;59.54
22964;BME280;11648;49.306;6.934;2023-03-03T03:38:43;98694.03;;;5.05;58.63
22964;BME280;11648;49.306;6.934;2023-03-03T03:41:11;98692.03;;;4.87;58.94
22964;BME280;11648;49.306;6.934;2023-03-03T03:43:38;98691.91;;;4.80;59.33
22964;BME280;11648;49.306;6.934;2023-03-03T03:46:05;98700.66;;;4.83;59.35
22964;BME280;11648;49.306;6.934;2023-03-03T03:48:33;98695.41;;;4.82;58.92
22964;BME280;11648;49.306;6.934;2023-03-03T03:51:02;98691.78;;;4.72;58.67
22964;BME280;11648;49.306;6.934;2023-03-03T03:53:30;98693.47;;;4.69;58.74
22964;BME280;11648;49.306;6.934;2023-03-03T03:55:57;98690.19;;;4.80;58.44
22964;BME280;11648;49.306;6.934;2023-03-03T03:58:24;98697.16;;;4.83;58.38
22964;BME280;11648;49.306;6.934;2023-03-03T04:01:02;98698.09;;;4.86;58.34
22964;BME280;11648;49.306;6.934;2023-03-03T04:03:29;98690.31;;;4.89;57.48
22964;BME280;11648;49.306;6.934;2023-03-03T04:05:56;98696.41;;;4.88;56.93
22964;BME280;11648;49.306;6.934;2023-03-03T04:08:23;98702.41;;;4.84;57.66
22964;BME280;11648;49.306;6.934;2023-03-03T04:10:50;98702.34;;;4.80;57.14
22964;BME280;11648;49.306;6.934;2023-03-03T04:13:17;98707.41;;;4.71;57.89
22964;BME280;11648;49.306;6.934;2023-03-03T04:15:44;98709.94;;;4.66;58.13
22964;BME280;11648;49.306;6.934;2023-03-03T04:18:11;98709.78;;;4.57;57.73
22964;BME280;11648;49.306;6.934;2023-03-03T04:20:39;98708.75;;;4.47;58.47
22964;BME280;11648;49.306;6.934;2023-03-03T04:23:06;98714.81;;;4.45;59.46
22964;BME280;11648;49.306;6.934;2023-03-03T04:25:33;98714.81;;;4.45;59.18
22964;BME280;11648;49.306;6.934;2023-03-03T04:28:00;98718.97;;;4.34;59.71
22964;BME280;11648;49.306;6.934;2023-03-03T04:30:31;98716.13;;;4.22;60.34
22964;BME280;11648;49.306;6.934;2023-03-03T04:32:58;98722.25;;;4.24;59.97
22964;BME280;11648;49.306;6.934;2023-03-03T04:35:26;98721.31;;;4.20;59.92
22964;BME280;11648;49.306;6.934;2023-03-03T04:37:53;98723.19;;;4.29;60.22
22964;BME280;11648;49.306;6.934;2023-03-03T04:40:20;98727.66;;;4.36;60.02
22964;BME280;11648;49.306;6.934;2023-03-03T04:42:48;98725.09;;;4.37;60.01
22964;BME280;11648;49.306;6.934;2023-03-03T04:45:16;98722.53;;;4.40;59.71
22964;BME280;11648;49.306;6.934;2023-03-03T04:47:44;98724.31;;;4.41;60.33
22964;BME280;11648;49.306;6.934;2023-03-03T04:50:11;98730.47;;;4.46;60.11
22964;BME280;11648;49.306;6.934;2023-03-03T04:52:39;98732.19;;;4.46;60.80
22964;BME280;11648;49.306;6.934;2023-03-03T04:55:07;98736.66;;;4.53;59.98
22964;BME280;11648;49.306;6.934;2023-03-03T04:57:37;98733.25;;;4.57;59.47
22964;BME280;11648;49.306;6.934;2023-03-03T05:00:04;98727.16;;;4.55;59.50
22964;BME280;11648;49.306;6.934;2023-03-03T05:02:32;98734.03;;;4.53;59.14
22964;BME280;11648;49.306;6.934;2023-03-03T05:04:59;98734.03;;;4.53;59.24
22964;BME280;11648;49.306;6.934;2023-03-03T05:07:26;98737.56;;;4.55;59.05
22964;BME280;11648;49.306;6.934;2023-03-03T05:09:52;98741.03;;;4.54;59.36
22964;BME280;11648;49.306;6.934;2023-03-03T05:12:19;98739.34;;;4.56;59.06
22964;BME280;11648;49.306;6.934;2023-03-03T05:14:46;98735.91;;;4.60;59.61
22964;BME280;11648;49.306;6.934;2023-03-03T05:17:13;98738.59;;;4.63;58.82
22964;BME280;11648;49.306;6.934;2023-03-03T05:19:40;98739.44;;;4.62;58.59
22964;BME280;11648;49.306;6.934;2023-03-03T05:22:07;98750.63;;;4.57;59.07
22964;BME280;11648;49.306;6.934;2023-03-03T05:24:33;98741.88;;;4.53;58.66
22964;BME280;11648;49.306;6.934;2023-03-03T05:27:00;98747.03;;;4.48;59.14
22964;BME280;11648;49.306;6.934;2023-03-03T05:29:28;98739.16;;;4.47;58.79
22964;BME280;11648;49.306;6.934;2023-03-03T05:31:57;98737.34;;;4.43;58.08
22964;BME280;11648;49.306;6.934;2023-03-03T05:34:24;98740.00;;;4.46;58.40
22964;BME280;11648;49.306;6.934;2023-03-03T05:36:51;98746.16;;;4.49;58.45
22964;BME280;11648;49.306;6.934;2023-03-03T05:39:17;98746.25;;;4.54;57.99
22964;BME280;11648;49.306;6.934;2023-03-03T05:41:44;98748.75;;;4.49;57.99
22964;BME280;11648;49.306;6.934;2023-03-03T05:44:10;98751.16;;;4.39;57.84
22964;BME280;11648;49.306;6.934;2023-03-03T05:46:38;98751.13;;;4.36;58.03
22964;BME280;11648;49.306;6.934;2023-03-03T05:49:05;98756.28;;;4.33;57.51
22964;BME280;11648;49.306;6.934;2023-03-03T05:51:31;98762.19;;;4.23;57.86
22964;BME280;11648;49.306;6.934;2023-03-03T05:54:01;98761.19;;;4.18;57.86
22964;BME280;11648;49.306;6.934;2023-03-03T05:56:28;98765.53;;;4.16;57.69
22964;BME280;11648;49.306;6.934;2023-03-03T05:58:54;98762.97;;;4.19;57.87
22964;BME280;11648;49.306;6.934;2023-03-03T06:01:21;98773.44;;;4.22;57.49
22964;BME280;11648;49.306;6.934;2023-03-03T06:03:48;98776.88;;;4.21;57.69
22964;BME280;11648;49.306;6.934;2023-03-03T06:06:15;98769.84;;;4.17;57.70
22964;BME280;11648;49.306;6.934;2023-03-03T06:08:42;98778.59;;;4.19;57.32
22964;BME280;11648;49.306;6.934;2023-03-03T06:11:09;98777.59;;;4.12;57.43
22964;BME280;11648;49.306;6.934;2023-03-03T06:13:36;98779.94;;;3.98;57.73
22964;BME280;11648;49.306;6.934;2023-03-03T06:16:02;98785.94;;;3.96;57.77
22964;BME280;11648;49.306;6.934;2023-03-03T06:18:29;98786.91;;;3.99;57.83
22964;BME280;11648;49.306;6.934;2023-03-03T06:20:56;98793.53;;;3.84;58.26
22964;BME280;11648;49.306;6.934;2023-03-03T06:23:22;98796.22;;;3.88;58.10
22964;BME280;11648;49.306;6.934;2023-03-03T06:25:49;98803.03;;;3.82;58.71
22964;BME280;11648;49.306;6.934;2023-03-03T06:28:16;98800.47;;;3.85;58.78
22964;BME280;11648;49.306;6.934;2023-03-03T06:30:42;98805.06;;;3.95;58.41
22964;BME280;11648;49.306;6.934;2023-03-03T06:33:10;98804.34;;;4.04;58.23
22964;BME280;11648;49.306;6.934;2023-03-03T06:35:37;98808.88;;;4.12;57.82
22964;BME280;11648;49.306;6.934;2023-03-03T06:38:05;98807.06;;;4.10;57.50
22964;BME280;11648;49.306;6.934;2023-03-03T06:40:32;98808.78;;;4.08;57.54
22964;BME280;11648;49.306;6.934;2023-03-03T06:42:58;98819.50;;;4.24;57.13
22964;BME280;11648;49.306;6.934;2023-03-03T06:45:27;98811.84;;;4.32;57.05
22964;BME280;11648;49.306;6.934;2023-03-03T06:47:54;98817.19;;;4.38;57.00
22964;BME280;11648;49.306;6.934;2023-03-03T06:50:21;98816.38;;;4.42;57.70
22964;BME280;11648;49.306;6.934;2023-03-03T06:52:48;98821.88;;;4.57;57.31
22964;BME280;11648;49.306;6.934;2023-03-03T06:55:21;98818.69;;;4.70;56.54
22964;BME280;11648;49.306;6.934;2023-03-03T06:57:48;98824.34;;;4.97;56.67
22964;BME280;11648;49.306;6.934;2023-03-03T07:00:23;98822.09;;;5.19;56.17
22964;BME280;11648;49.306;6.934;2023-03-03T07:03:06;98819.84;;;5.41;55.41
22964;BME280;11648;49.306;6.934;2023-03-03T07:05:33;98824.47;;;5.59;54.24
22964;BME280;11648;49.306;6.934;2023-03-03T07:08:00;98815.09;;;5.75;53.82
22964;BME280;11648;49.306;6.934;2023-03-03T07:10:28;98819.88;;;6.03;52.87
22964;BME280;11648;49.306;6.934;2023-03-03T07:13:01;98820.13;;;6.26;52.12
22964;BME280;11648;49.306;6.934;2023-03-03T07:15:33;98809.25;;;6.63;51.73
22964;BME280;11648;49.306;6.934;2023-03-03T07:18:00;98818.25;;;6.92;50.78
22964;BME280;11648;49.306;6.934;2023-03-03T07:20:37;98813.31;;;7.29;51.04
22964;BME280;11648;49.306;6.934;2023-03-03T07:23:34;98813.63;;;7.77;50.30
22964;BME280;11648;49.306;6.934;2023-03-03T07:26:15;98808.78;;;8.58;48.49
22964;BME280;11648;49.306;6.934;2023-03-03T07:28:57;98797.38;;;9.78;46.09
22964;BME280;11648;49.306;6.934;2023-03-03T07:31:36;98797.03;;;10.63;43.60
22964;BME280;11648;49.306;6.934;2023-03-03T07:34:37;98787.59;;;11.51;41.86
22964;BME280;11648;49.306;6.934;2023-03-03T07:37:10;98788.97;;;12.63;39.74
22964;BME280;11648;49.306;6.934;2023-03-03T07:39:42;98780.03;;;13.29;38.13
22964;BME280;11648;49.306;6.934;2023-03-03T07:42:27;98768.78;;;14.12;35.68
22964;BME280;11648;49.306;6.934;2023-03-03T07:45:30;98776.78;;;14.53;35.68
22964;BME280;11648;49.306;6.934;2023-03-03T07:48:23;98776.09;;;15.20;34.13
22964;BME280;11648;49.306;6.934;2023-03-03T07:50:51;98775.22;;;15.91;33.18
22964;BME280;11648;49.306;6.934;2023-03-03T07:55:51;98773.34;;;17.67;30.31
22964;BME280;11648;49.306;6.934;2023-03-03T07:58:26;98780.03;;;18.51;29.76
22964;BME280;11648;49.306;6.934;2023-03-03T08:01:33;98784.69;;;18.69;29.22
22964;BME280;11648;49.306;6.934;2023-03-03T08:04:01;98784.47;;;19.19;28.00
22964;BME280;11648;49.306;6.934;2023-03-03T08:06:41;98782.91;;;19.79;27.07
22964;BME280;11648;49.306;6.934;2023-03-03T08:11:49;98782.88;;;20.59;25.30
22964;BME280;11648;49.306;6.934;2023-03-03T08:14:26;98778.63;;;20.93;24.99
22964;BME280;11648;49.306;6.934;2023-03-03T08:16:54;98776.44;;;21.55;24.39
22964;BME280;11648;49.306;6.934;2023-03-03T08:19:21;98787.19;;;21.73;24.31
22964;BME280;11648;49.306;6.934;2023-03-03T08:21:48;98790.13;;;22.02;23.81
22964;BME280;11648;49.306;6.934;2023-03-03T08:24:15;98786.50;;;22.38;23.82
22964;BME280;11648;49.306;6.934;2023-03-03T08:26:42;98787.59;;;22.67;23.56
22964;BME280;11648;49.306;6.934;2023-03-03T08:29:09;98787.31;;;23.04;22.94
22964;BME280;11648;49.306;6.934;2023-03-03T08:31:37;98787.22;;;22.90;22.91
22964;BME280;11648;49.306;6.934;2023-03-03T08:34:07;98781.94;;;23.04;22.28
22964;BME280;11648;49.306;6.934;2023-03-03T08:36:34;98772.41;;;23.30;22.57
22964;BME280;11648;49.306;6.934;2023-03-03T08:39:02;98779.38;;;21.85;23.19
22964;BME280;11648;49.306;6.934;2023-03-03T08:41:29;98788.94;;;23.06;22.16
22964;BME280;11648;49.306;6.934;2023-03-03T08:43:56;98782.38;;;22.63;22.24
22964;BME280;11648;49.306;6.934;2023-03-03T08:46:23;98778.81;;;23.74;21.82
22964;BME280;11648;49.306;6.934;2023-03-03T08:48:49;98775.38;;;25.15;20.53
22964;BME280;11648;49.306;6.934;2023-03-03T08:51:16;98766.03;;;25.62;19.85
22964;BME280;11648;49.306;6.934;2023-03-03T08:53:43;98761.81;;;25.43;20.37
22964;BME280;11648;49.306;6.934;2023-03-03T08:56:10;98759.78;;;26.00;20.08
22964;BME280;11648;49.306;6.934;2023-03-03T08:58:36;98773.66;;;26.46;19.36
22964;BME280;11648;49.306;6.934;2023-03-03T09:01:10;98775.06;;;26.39;19.57
22964;BME280;11648;49.306;6.934;2023-03-03T09:03:37;98770.19;;;26.70;19.11
22964;BME280;11648;49.306;6.934;2023-03-03T09:06:04;98767.63;;;26.43;19.40
22964;BME280;11648;49.306;6.934;2023-03-03T09:08:30;98777.72;;;25.75;20.25
22964;BME280;11648;49.306;6.934;2023-03-03T09:10:57;98774.31;;;25.98;19.82
22964;BME280;11648;49.306;6.934;2023-03-03T09:13:24;98776.34;;;26.21;19.84
22964;BME280;11648;49.306;6.934;2023-03-03T09:15:52;98782.53;;;26.86;19.34
22964;BME280;11648;49.306;6.934;2023-03-03T09:18:21;98781.28;;;28.45;18.87
22964;BME280;11648;49.306;6.934;2023-03-03T09:20:53;98776.34;;;27.33;19.25
22964;BME280;11648;49.306;6.934;2023-03-03T09:25:50;98783.91;;;28.58;18.29
22964;BME280;11648;49.306;6.934;2023-03-03T09:30:49;98778.13;;;29.18;17.07
22964;BME280;11648;49.306;6.934;2023-03-03T09:33:22;98786.75;;;29.46;17.08
22964;BME280;11648;49.306;6.934;2023-03-03T09:36:03;98788.13;;;29.72;17.14
22964;BME280;11648;49.306;6.934;2023-03-03T09:38:32;98777.97;;;31.40;15.53
22964;BME280;11648;49.306;6.934;2023-03-03T09:41:24;98778.84;;;31.50;15.61
22964;BME280;11648;49.306;6.934;2023-03-03T09:49:33;98775.56;;;31.65;15.20
22964;BME280;11648;49.306;6.934;2023-03-03T09:52:20;98782.78;;;31.95;15.01
22964;BME280;11648;49.306;6.934;2023-03-03T10:00:26;98784.03;;;31.53;14.98
22964;BME280;11648;49.306;6.934;2023-03-03T10:05:33;98792.50;;;30.89;15.61
22964;BME280;11648;49.306;6.934;2023-03-03T10:08:36;98796.38;;;32.53;14.35
22964;BME280;11648;49.306;6.934;2023-03-03T10:16:40;98812.59;;;33.20;13.98
22964;BME280;11648;49.306;6.934;2023-03-03T10:22:03;98825.09;;;32.28;14.30
22964;BME280;11648;49.306;6.934;2023-03-03T10:24:52;98816.41;;;31.65;14.43
22964;BME280;11648;49.306;6.934;2023-03-03T10:32:50;98820.59;;;31.69;15.17
22964;BME280;11648;49.306;6.934;2023-03-03T10:38:45;98810.38;;;33.33;13.39
22964;BME280;11648;49.306;6.934;2023-03-03T10:41:33;98816.16;;;32.74;14.00
22964;BME280;11648;49.306;6.934;2023-03-03T10:55:11;98807.03;;;33.66;13.75
22964;BME280;11648;49.306;6.934;2023-03-03T10:58:06;98801.22;;;33.79;13.67
22964;BME280;11648;49.306;6.934;2023-03-03T11:00:33;98803.03;;;34.23;13.40
22964;BME280;11648;49.306;6.934;2023-03-03T11:17:31;98804.53;;;34.18;13.58
22964;BME280;11648;49.306;6.934;2023-03-03T11:20:15;98797.69;;;35.77;12.19
22964;BME280;11648;49.306;6.934;2023-03-03T11:23:17;98798.50;;;33.97;13.54
22964;BME280;11648;49.306;6.934;2023-03-03T11:36:15;98790.88;;;35.97;12.36
22964;BME280;11648;49.306;6.934;2023-03-03T11:38:50;98797.88;;;34.82;12.55
22964;BME280;11648;49.306;6.934;2023-03-03T11:44:04;98788.69;;;34.21;12.91
22964;BME280;11648;49.306;6.934;2023-03-03T11:46:48;98785.00;;;34.31;13.19
22964;BME280;11648;49.306;6.934;2023-03-03T11:54:46;98777.78;;;34.65;12.91
22964;BME280;11648;49.306;6.934;2023-03-03T11:57:20;98779.41;;;34.14;13.15
22964;BME280;11648;49.306;6.934;2023-03-03T12:00:15;98773.06;;;34.14;12.99
22964;BME280;11648;49.306;6.934;2023-03-03T12:05:53;98773.81;;;33.71;13.14
22964;BME280;11648;49.306;6.934;2023-03-03T12:11:46;98765.34;;;33.10;13.95
22964;BME280;11648;49.306;6.934;2023-03-03T12:19:52;98761.28;;;31.92;14.20
22964;BME280;11648;49.306;6.934;2023-03-03T12:22:34;98761.09;;;31.06;15.13
22964;BME280;11648;49.306;6.934;2023-03-03T12:28:23;98761.72;;;30.88;15.42
22964;BME280;11648;49.306;6.934;2023-03-03T12:31:21;98762.75;;;28.97;16.35
22964;BME280;11648;49.306;6.934;2023-03-03T12:33:58;98765.09;;;27.63;17.46
22964;BME280;11648;49.306;6.934;2023-03-03T12:36:43;98763.72;;;26.47;18.90
22964;BME280;11648;49.306;6.934;2023-03-03T12:39:22;98767.50;;;26.44;18.66
22964;BME280;11648;49.306;6.934;2023-03-03T12:45:21;98774.66;;;24.56;20.26
22964;BME280;11648;49.306;6.934;2023-03-03T12:47:52;98773.06;;;23.65;21.23
22964;BME280;11648;49.306;6.934;2023-03-03T12:56:00;98764.00;;;21.72;23.76
22964;BME280;11648;49.306;6.934;2023-03-03T13:17:17;98783.72;;;19.37;26.66
22964;BME280;11648;49.306;6.934;2023-03-03T13:19:58;98784.00;;;19.31;27.04
22964;BME280;11648;49.306;6.934;2023-03-03T13:27:38;98781.19;;;18.91;27.26
22964;BME280;11648;49.306;6.934;2023-03-03T13:33:07;98780.19;;;18.93;27.66
22964;BME280;11648;49.306;6.934;2023-03-03T13:35:49;98785.34;;;18.98;27.01
22964;BME280;11648;49.306;6.934;2023-03-03T13:38:22;98782.53;;;18.56;27.49
22964;BME280;11648;49.306;6.934;2023-03-03T13:41:01;98788.28;;;18.44;27.68
22964;BME280;11648;49.306;6.934;2023-03-03T13:43:37;98784.84;;;18.42;27.92
22964;BME280;11648;49.306;6.934;2023-03-03T13:46:17;98780.56;;;18.36;27.78
22964;BME280;11648;49.306;6.934;2023-03-03T13:51:47;98779.91;;;18.31;27.55
22964;BME280;11648;49.306;6.934;2023-03-03T14:05:59;98773.13;;;18.46;27.31
22964;BME280;11648;49.306;6.934;2023-03-03T14:08:42;98773.66;;;18.55;27.35
22964;BME280;11648;49.306;6.934;2023-03-03T14:11:36;98762.97;;;18.32;27.80
22964;BME280;11648;49.306;6.934;2023-03-03T14:17:50;98758.03;;;17.97;28.21
22964;BME280;11648;49.306;6.934;2023-03-03T14:20:27;98760.34;;;17.83;28.24
22964;BME280;11648;49.306;6.934;2023-03-03T14:23:03;98752.78;;;17.95;27.87
22964;BME280;11648;49.306;6.934;2023-03-03T14:28:44;98751.69;;;18.01;28.73
22964;BME280;11648;49.306;6.934;2023-03-03T14:31:23;98744.31;;;17.84;28.81
22964;BME280;11648;49.306;6.934;2023-03-03T14:36:41;98741.41;;;17.65;29.39
22964;BME280;11648;49.306;6.934;2023-03-03T14:41:54;98755.19;;;17.78;29.89
22964;BME280;11648;49.306;6.934;2023-03-03T14:44:28;98749.16;;;17.73;29.20
22964;BME280;11648;49.306;6.934;2023-03-03T14:49:35;98743.22;;;17.65;29.38
22964;BME280;11648;49.306;6.934;2023-03-03T14:52:18;98749.44;;;17.64;29.62
22964;BME280;11648;49.306;6.934;2023-03-03T14:54:47;98740.78;;;17.59;29.56
22964;BME280;11648;49.306;6.934;2023-03-03T14:57:20;98743.00;;;17.45;29.57
22964;BME280;11648;49.306;6.934;2023-03-03T15:02:28;98743.94;;;17.42;30.05
22964;BME280;11648;49.306;6.934;2023-03-03T15:05:25;98741.28;;;17.42;29.84
22964;BME280;11648;49.306;6.934;2023-03-03T15:08:13;98735.25;;;17.11;30.19
22964;BME280;11648;49.306;6.934;2023-03-03T15:10:42;98740.97;;;17.26;30.19
22964;BME280;11648;49.306;6.934;2023-03-03T15:13:30;98737.28;;;17.31;30.39
22964;BME280;11648;49.306;6.934;2023-03-03T15:18:26;98737.00;;;17.12;30.56
22964;BME280;11648;49.306;6.934;2023-03-03T15:21:15;98733.38;;;17.14;30.70
22964;BME280;11648;49.306;6.934;2023-03-03T15:24:02;98734.34;;;17.12;30.60
22964;BME280;11648;49.306;6.934;2023-03-03T15:29:03;98732.66;;;17.09;31.11
22964;BME280;11648;49.306;6.934;2023-03-03T15:31:45;98734.63;;;17.03;30.72
22964;BME280;11648;49.306;6.934;2023-03-03T15:39:33;98729.28;;;17.04;31.08
22964;BME280;11648;49.306;6.934;2023-03-03T15:42:13;98732.84;;;16.75;31.40
22964;BME280;11648;49.306;6.934;2023-03-03T15:53:24;98747.22;;;16.39;31.79
22964;BME280;11648;49.306;6.934;2023-03-03T15:56:06;98749.63;;;16.19;31.87
22964;BME280;11648;49.306;6.934;2023-03-03T15:58:55;98751.44;;;16.17;32.24
22964;BME280;11648;49.306;6.934;2023-03-03T16:01:39;98749.22;;;16.02;32.47
22964;BME280;11648;49.306;6.934;2023-03-03T16:04:12;98750.44;;;15.90;32.52
22964;BME280;11648;49.306;6.934;2023-03-03T16:06:48;98758.44;;;15.89;32.76
22964;BME280;11648;49.306;6.934;2023-03-03T16:10:02;98756.72;;;15.88;32.57
22964;BME280;11648;49.306;6.934;2023-03-03T16:12:56;98758.50;;;15.87;32.27
22964;BME280;11648;49.306;6.934;2023-03-03T16:23:38;98771.31;;;15.34;33.53
22964;BME280;11648;49.306;6.934;2023-03-03T16:26:21;98765.16;;;15.34;33.59
22964;BME280;11648;49.306;6.934;2023-03-03T16:29:02;98767.78;;;15.34;33.59
22964;BME280;11648;49.306;6.934;2023-03-03T16:31:50;98769.88;;;15.23;33.68
22964;BME280;11648;49.306;6.934;2023-03-03T16:37:17;98774.84;;;15.00;33.95
22964;BME280;11648;49.306;6.934;2023-03-03T16:39:51;98776.94;;;14.86;34.10
22964;BME280;11648;49.306;6.934;2023-03-03T16:42:25;98783.28;;;14.78;34.56
22964;BME280;11648;49.306;6.934;2023-03-03T16:45:08;98783.25;;;14.80;34.48
22964;BME280;11648;49.306;6.934;2023-03-03T16:53:26;98791.63;;;14.62;34.74
22964;BME280;11648;49.306;6.934;2023-03-03T17:07:41;98819.97;;;14.12;34.14
22964;BME280;11648;49.306;6.934;2023-03-03T17:16:01;98825.66;;;13.91;34.25
22964;BME280;11648;49.306;6.934;2023-03-03T17:33:02;98844.84;;;13.55;34.84
22964;BME280;11648;49.306;6.934;2023-03-03T17:44:10;98858.44;;;13.32;35.87
22964;BME280;11648;49.306;6.934;2023-03-03T17:46:47;98862.03;;;13.28;35.39